Time;durP1;ratioP1;P1;durP2;ratioP2;P2;SDS_P1;SDS_P2;PMS_P1;PMS_P2;Temp;Humidity;BMP_temperature;BMP_pressure;BME280_temperature;BME280_humidity;BME280_pressure;Samples;Min_cycle;Max_cycle;Signal;HPM_P1;HPM_P2
2022/11/11 00:01:00;;;;;;;16.35;7.90;;;9.80;99.90;;;;;;4963100;28;20383;-76
2022/11/11 00:03:27;;;;;;;16.95;8.55;;;9.80;99.90;;;;;;4975873;28;20082;-75
2022/11/11 00:05:52;;;;;;;18.02;8.60;;;9.80;99.90;;;;;;4975141;28;20059;-76
2022/11/11 00:08:18;;;;;;;15.00;8.93;;;9.80;99.90;;;;;;4986398;28;20064;-76
2022/11/11 00:10:44;;;;;;;14.25;8.05;;;9.80;99.90;;;;;;4979969;28;20034;-76
2022/11/11 00:13:09;;;;;;;19.08;9.35;;;9.70;99.90;;;;;;4976631;28;20050;-76
2022/11/11 00:15:40;;;;;;;16.95;8.93;;;9.80;99.90;;;;;;4968259;28;20055;-76
2022/11/11 00:26:21;;;;;;;17.40;10.10;;;10.10;99.90;;;;;;4978343;28;20050;-77
2022/11/11 00:28:46;;;;;;;19.65;10.18;;;9.80;99.90;;;;;;4965150;28;20388;-76
2022/11/11 00:31:14;;;;;;;16.75;8.90;;;9.90;99.90;;;;;;4991012;28;20060;-76
2022/11/11 00:33:40;;;;;;;17.48;9.73;;;9.90;99.90;;;;;;4969153;28;20055;-76
2022/11/11 00:36:06;;;;;;;19.83;10.23;;;9.90;99.90;;;;;;4957638;28;20045;-76
2022/11/11 00:38:44;;;;;;;17.45;10.15;;;10.00;99.90;;;;;;4973444;28;20138;-76
2022/11/11 00:41:11;;;;;;;18.73;9.95;;;9.90;99.90;;;;;;4957808;28;20055;-75
2022/11/11 00:43:37;;;;;;;19.55;9.95;;;9.90;99.90;;;;;;4985537;28;20057;-76
2022/11/11 00:51:32;;;;;;;17.73;10.55;;;10.00;99.90;;;;;;4966668;28;20496;-76
2022/11/11 00:53:58;;;;;;;21.77;11.43;;;10.00;99.90;;;;;;4966826;28;20046;-76
2022/11/11 00:56:24;;;;;;;20.73;11.32;;;10.00;99.90;;;;;;4973080;28;20043;-76
2022/11/11 00:58:50;;;;;;;19.45;10.95;;;10.00;99.90;;;;;;4957320;28;20051;-74
2022/11/11 01:01:16;;;;;;;21.73;11.18;;;10.00;99.90;;;;;;4959486;28;20085;-77
2022/11/11 01:03:42;;;;;;;18.08;11.48;;;10.10;99.90;;;;;;4994742;28;20038;-76
2022/11/11 01:06:10;;;;;;;20.80;11.68;;;10.10;99.90;;;;;;4955480;28;20054;-76
2022/11/11 01:08:36;;;;;;;20.42;11.85;;;10.00;99.90;;;;;;4977474;28;20105;-76
2022/11/11 01:11:02;;;;;;;18.65;12.13;;;10.10;99.90;;;;;;4972127;28;20047;-76
2022/11/11 01:13:32;;;;;;;19.90;12.55;;;10.00;99.90;;;;;;4973379;28;20053;-76
2022/11/11 01:16:04;;;;;;;22.05;12.25;;;10.00;99.90;;;;;;4971464;28;20054;-76
2022/11/11 01:18:30;;;;;;;19.77;11.90;;;10.00;99.90;;;;;;4988910;28;20050;-76
2022/11/11 01:21:00;;;;;;;20.40;12.13;;;10.00;99.90;;;;;;4986071;28;20059;-75
2022/11/11 01:23:26;;;;;;;19.33;12.52;;;9.90;99.90;;;;;;4983691;28;20047;-76
2022/11/11 01:25:52;;;;;;;21.52;11.77;;;9.90;99.90;;;;;;4966417;28;20130;-76
2022/11/11 01:28:18;;;;;;;22.77;13.60;;;9.90;99.90;;;;;;4966281;28;20130;-76
2022/11/11 01:30:44;;;;;;;23.65;13.30;;;9.80;99.90;;;;;;4942659;28;20134;-76
2022/11/11 01:33:10;;;;;;;20.20;12.98;;;9.80;99.90;;;;;;4972494;28;20290;-76
2022/11/11 01:35:40;;;;;;;22.38;13.10;;;9.70;99.90;;;;;;4967768;28;20042;-75
2022/11/11 01:38:07;;;;;;;23.77;14.38;;;9.70;99.90;;;;;;4978187;28;20532;-75
2022/11/11 01:40:44;;;;;;;21.90;13.43;;;9.80;99.90;;;;;;4989681;28;20113;-75
2022/11/11 01:43:10;;;;;;;21.92;14.45;;;9.60;99.90;;;;;;4982883;28;20050;-76
2022/11/11 01:45:50;;;;;;;22.75;14.00;;;9.60;99.90;;;;;;4975390;28;20047;-76
2022/11/11 01:51:48;;;;;;;23.42;14.77;;;9.50;99.90;;;;;;4974326;28;20073;-76
2022/11/11 01:54:21;;;;;;;22.73;14.20;;;9.50;99.90;;;;;;4971944;28;20051;-76
2022/11/11 01:56:50;;;;;;;24.00;14.55;;;9.50;99.90;;;;;;4972636;28;20047;-76
2022/11/11 01:59:17;;;;;;;26.33;16.00;;;9.50;99.90;;;;;;4972374;28;20384;-76
2022/11/11 02:01:43;;;;;;;24.88;15.65;;;9.50;99.90;;;;;;4972373;28;20059;-76
2022/11/11 02:06:59;;;;;;;26.77;16.55;;;9.50;99.90;;;;;;4984492;28;20055;-76
2022/11/11 02:09:25;;;;;;;27.00;16.25;;;9.40;99.90;;;;;;4970456;28;20058;-76
2022/11/11 02:14:44;;;;;;;26.55;18.30;;;9.40;99.90;;;;;;5001380;28;20059;-76
2022/11/11 02:17:12;;;;;;;26.40;16.85;;;9.40;99.90;;;;;;4972339;28;20537;-76
2022/11/11 02:19:45;;;;;;;28.40;18.40;;;9.40;99.90;;;;;;4974486;28;20450;-76
2022/11/11 02:22:18;;;;;;;29.98;19.00;;;9.30;99.90;;;;;;4976229;28;20138;-75
2022/11/11 02:24:45;;;;;;;27.42;18.63;;;9.30;99.90;;;;;;4977027;28;20059;-76
2022/11/11 02:27:16;;;;;;;27.70;18.38;;;9.30;99.90;;;;;;4962067;28;20450;-76
2022/11/11 02:29:45;;;;;;;27.58;19.15;;;9.30;99.90;;;;;;4975893;28;20465;-77
2022/11/11 02:32:10;;;;;;;29.33;19.80;;;9.40;99.90;;;;;;4975977;28;20455;-76
2022/11/11 02:34:36;;;;;;;26.40;18.67;;;9.40;99.90;;;;;;4964290;28;20130;-76
2022/11/11 02:37:05;;;;;;;28.98;20.75;;;9.40;99.90;;;;;;4975576;28;20411;-75
2022/11/11 02:39:34;;;;;;;28.00;20.27;;;9.40;99.90;;;;;;4985864;28;20126;-76
2022/11/11 02:42:03;;;;;;;28.98;20.20;;;9.40;99.90;;;;;;4963005;28;20059;-76
2022/11/11 02:44:28;;;;;;;29.40;21.23;;;9.50;99.90;;;;;;4975737;28;20051;-76
2022/11/11 02:46:54;;;;;;;35.75;22.45;;;9.40;99.90;;;;;;4975804;28;20502;-76
2022/11/11 02:49:20;;;;;;;36.60;22.40;;;9.40;99.90;;;;;;4958876;28;20082;-76
2022/11/11 02:51:46;;;;;;;36.78;22.50;;;9.40;99.90;;;;;;4975605;28;20046;-75
2022/11/11 02:54:12;;;;;;;32.50;22.52;;;9.40;99.90;;;;;;4958946;28;20054;-76
2022/11/11 02:59:22;;;;;;;33.15;22.80;;;9.30;99.90;;;;;;4974969;28;20105;-76
2022/11/11 03:01:48;;;;;;;29.70;21.10;;;9.40;99.90;;;;;;4975387;28;20483;-76
2022/11/11 03:04:13;;;;;;;36.83;24.08;;;9.40;99.90;;;;;;4975548;28;20142;-75
2022/11/11 03:06:39;;;;;;;33.83;24.50;;;9.40;99.90;;;;;;4975582;28;20129;-76
2022/11/11 03:09:05;;;;;;;39.08;24.85;;;9.60;99.90;;;;;;4975032;28;20047;-77
2022/11/11 03:11:30;;;;;;;38.13;24.90;;;9.40;99.90;;;;;;4959364;28;20039;-76
2022/11/11 03:13:57;;;;;;;36.97;24.15;;;9.30;99.90;;;;;;4975171;28;20059;-76
2022/11/11 03:19:08;;;;;;;35.28;24.05;;;9.30;99.90;;;;;;4974155;28;20050;-76
2022/11/11 03:21:33;;;;;;;33.35;23.45;;;9.30;99.90;;;;;;4975279;28;20042;-76
2022/11/11 03:23:59;;;;;;;36.78;24.95;;;9.30;99.90;;;;;;4975785;28;20058;-76
2022/11/11 03:26:25;;;;;;;35.90;24.90;;;9.30;99.90;;;;;;4959253;28;20407;-76
2022/11/11 03:28:51;;;;;;;34.55;25.98;;;9.30;99.90;;;;;;4974563;28;20042;-76
2022/11/11 03:31:17;;;;;;;34.78;25.42;;;9.30;99.90;;;;;;4975342;28;20124;-76
2022/11/11 03:33:43;;;;;;;40.00;26.67;;;9.30;99.90;;;;;;4973714;28;20051;-76
2022/11/11 03:36:08;;;;;;;38.60;27.23;;;9.30;99.90;;;;;;4975335;28;20051;-76
2022/11/11 03:38:34;;;;;;;40.15;28.00;;;9.30;99.90;;;;;;4958444;28;20101;-76
2022/11/11 03:41:00;;;;;;;46.03;30.40;;;9.30;99.90;;;;;;4967431;28;20134;-76
2022/11/11 03:43:32;;;;;;;39.80;28.50;;;9.30;99.90;;;;;;4969086;28;20065;-76
2022/11/11 03:45:59;;;;;;;44.08;29.60;;;9.30;99.90;;;;;;4991075;28;20153;-76
2022/11/11 03:48:27;;;;;;;43.15;29.65;;;9.30;99.90;;;;;;4973822;28;20050;-76
2022/11/11 03:50:53;;;;;;;44.00;29.58;;;9.30;99.90;;;;;;4974554;28;20055;-76
2022/11/11 03:53:20;;;;;;;43.50;30.15;;;9.30;99.90;;;;;;4974702;28;20466;-76
2022/11/11 03:55:46;;;;;;;45.78;31.58;;;9.40;99.90;;;;;;4974075;28;20462;-76
2022/11/11 03:58:12;;;;;;;42.65;30.25;;;9.40;99.90;;;;;;4974293;28;20051;-75
2022/11/11 04:00:38;;;;;;;46.47;31.27;;;9.40;99.90;;;;;;4986636;28;20460;-76
2022/11/11 04:11:35;;;;;;;47.75;32.92;;;9.60;99.90;;;;;;4975018;28;20058;-75
2022/11/11 04:16:49;;;;;;;47.85;33.20;;;9.70;99.90;;;;;;4974042;28;20065;-75
2022/11/11 04:21:59;;;;;;;48.08;33.38;;;9.80;99.90;;;;;;4960074;28;20411;-75
2022/11/11 04:27:15;;;;;;;46.60;30.75;;;9.80;99.90;;;;;;4960354;28;20057;-76
2022/11/11 04:29:41;;;;;;;47.08;34.15;;;9.90;99.90;;;;;;4973986;28;20050;-76
2022/11/11 04:34:59;;;;;;;46.40;31.50;;;9.90;99.90;;;;;;4973123;28;20058;-75
2022/11/11 04:37:26;;;;;;;46.35;32.67;;;9.90;99.90;;;;;;4973911;28;20035;-76
2022/11/11 04:42:38;;;;;;;48.63;32.20;;;10.00;99.90;;;;;;4963646;28;20479;-76
2022/11/11 04:48:06;;;;;;;45.17;32.42;;;10.00;99.90;;;;;;4994824;28;20502;-76
2022/11/11 04:50:37;;;;;;;46.50;32.22;;;10.00;99.90;;;;;;4957220;28;20127;-76
2022/11/11 04:53:05;;;;;;;43.90;32.05;;;10.00;99.90;;;;;;4973511;28;20112;-77
2022/11/11 04:58:17;;;;;;;47.85;32.47;;;10.10;99.90;;;;;;4958519;28;20054;-75
2022/11/11 05:00:43;;;;;;;41.13;29.67;;;10.10;99.90;;;;;;4986203;28;20398;-76
2022/11/11 05:03:23;;;;;;;45.65;31.98;;;10.10;99.90;;;;;;4972911;28;20349;-75
2022/11/11 05:11:35;;;;;;;40.75;29.95;;;10.10;99.90;;;;;;4960841;28;20082;-76
2022/11/11 05:22:39;;;;;;;42.25;30.17;;;10.20;99.90;;;;;;4961687;28;20062;-76
2022/11/11 05:25:24;;;;;;;40.38;28.63;;;10.20;99.90;;;;;;4959908;28;20090;-76
2022/11/11 05:27:52;;;;;;;40.70;29.27;;;10.20;99.90;;;;;;4972854;28;20050;-76
2022/11/11 05:30:18;;;;;;;41.70;30.13;;;10.20;99.90;;;;;;4989019;28;20051;-75
2022/11/11 05:32:44;;;;;;;39.78;27.98;;;10.20;99.90;;;;;;4947847;28;20081;-76
2022/11/11 05:35:13;;;;;;;40.47;28.48;;;10.20;99.90;;;;;;4967402;28;20054;-75
2022/11/11 05:37:39;;;;;;;38.13;28.70;;;10.20;99.90;;;;;;4977588;28;20039;-75
2022/11/11 05:40:06;;;;;;;41.00;29.13;;;10.20;99.90;;;;;;4971788;28;20455;-75
2022/11/11 05:42:32;;;;;;;46.10;29.48;;;10.20;99.90;;;;;;4953883;28;20086;-76
2022/11/11 05:44:57;;;;;;;41.72;29.52;;;10.20;99.90;;;;;;4982497;28;20130;-76
2022/11/11 05:47:23;;;;;;;39.60;28.85;;;10.20;99.90;;;;;;4972728;28;20108;-75
2022/11/11 05:49:49;;;;;;;41.95;29.50;;;10.20;99.90;;;;;;4988622;28;20057;-76
2022/11/11 05:52:16;;;;;;;40.75;28.92;;;10.20;99.90;;;;;;4973517;28;20146;-75
2022/11/11 05:54:42;;;;;;;41.33;27.75;;;10.20;99.90;;;;;;4976490;28;20043;-75
2022/11/11 05:57:08;;;;;;;37.67;26.73;;;10.20;99.90;;;;;;4992478;28;20125;-75
2022/11/11 05:59:34;;;;;;;40.13;28.35;;;10.20;99.90;;;;;;4977973;28;20047;-75
2022/11/11 06:02:00;;;;;;;40.80;28.65;;;10.20;99.90;;;;;;4976948;28;20062;-75
2022/11/11 06:04:26;;;;;;;36.35;26.58;;;10.20;99.90;;;;;;4976502;28;20050;-76
2022/11/11 06:06:52;;;;;;;36.03;27.58;;;10.20;99.90;;;;;;4976759;28;20046;-76
2022/11/11 06:09:18;;;;;;;38.72;28.52;;;10.30;99.90;;;;;;4977020;28;20049;-75
2022/11/11 06:11:43;;;;;;;37.90;26.25;;;10.30;99.90;;;;;;4992791;28;20485;-75
2022/11/11 06:14:09;;;;;;;41.50;28.70;;;10.30;99.90;;;;;;4975991;28;20086;-75
2022/11/11 06:16:35;;;;;;;39.05;27.52;;;10.30;99.90;;;;;;4992482;28;20051;-75
2022/11/11 06:19:03;;;;;;;39.60;27.98;;;10.30;99.90;;;;;;4991669;28;20058;-75
2022/11/11 06:21:30;;;;;;;42.55;28.48;;;10.30;99.90;;;;;;4962404;28;20395;-76
2022/11/11 06:23:56;;;;;;;38.92;27.67;;;10.30;99.90;;;;;;4975807;28;20043;-76
2022/11/11 06:26:21;;;;;;;36.63;27.02;;;10.30;99.90;;;;;;4959716;28;20114;-75
2022/11/11 06:28:52;;;;;;;39.63;28.10;;;10.30;99.90;;;;;;4981561;28;20050;-76
2022/11/11 06:31:24;;;;;;;38.58;28.17;;;10.30;99.90;;;;;;4979446;28;20062;-76
2022/11/11 06:33:50;;;;;;;35.60;26.48;;;10.30;99.90;;;;;;4988673;28;20043;-76
2022/11/11 06:36:18;;;;;;;38.28;26.55;;;10.30;99.90;;;;;;4960285;28;20051;-76
2022/11/11 06:38:44;;;;;;;36.95;27.15;;;10.30;99.90;;;;;;4946309;28;20128;-76
2022/11/11 06:41:11;;;;;;;35.88;25.85;;;10.40;99.90;;;;;;4969768;28;20138;-77
2022/11/11 06:43:41;;;;;;;38.58;27.25;;;10.40;99.90;;;;;;4970869;28;20069;-76
2022/11/11 06:46:16;;;;;;;38.17;25.50;;;10.40;99.90;;;;;;4986541;28;20082;-76
2022/11/11 06:48:42;;;;;;;34.67;26.05;;;10.40;99.90;;;;;;4977586;28;20141;-77
2022/11/11 06:51:10;;;;;;;36.72;25.60;;;10.40;99.90;;;;;;4972112;28;20736;-76
2022/11/11 06:53:35;;;;;;;34.42;25.17;;;10.40;99.90;;;;;;4968703;28;20129;-78
2022/11/11 06:56:01;;;;;;;37.13;25.42;;;10.40;99.90;;;;;;4978394;28;20047;-76
2022/11/11 06:58:27;;;;;;;36.13;25.73;;;10.40;99.90;;;;;;4969609;28;20049;-77
2022/11/11 07:00:53;;;;;;;36.17;25.52;;;10.40;99.90;;;;;;4974954;28;20054;-76
2022/11/11 07:03:20;;;;;;;34.15;25.55;;;10.40;99.90;;;;;;4974198;28;20129;-77
2022/11/11 07:05:46;;;;;;;34.63;24.85;;;10.40;99.90;;;;;;4944987;28;20042;-78
2022/11/11 07:08:17;;;;;;;35.55;24.02;;;10.40;99.90;;;;;;4990553;28;20082;-76
2022/11/11 07:10:45;;;;;;;32.15;24.35;;;10.30;99.90;;;;;;4981633;28;20057;-76
2022/11/11 07:13:11;;;;;;;33.28;25.45;;;10.50;99.90;;;;;;4969600;28;20549;-77
2022/11/11 07:15:37;;;;;;;33.92;23.73;;;10.40;99.90;;;;;;4974573;28;20127;-76
2022/11/11 07:18:03;;;;;;;35.10;24.27;;;10.40;99.90;;;;;;4971699;28;20453;-76
2022/11/11 07:20:29;;;;;;;33.03;24.38;;;10.40;99.90;;;;;;4977329;28;20043;-76
2022/11/11 07:22:55;;;;;;;32.03;23.80;;;10.40;99.90;;;;;;4989754;28;20077;-76
2022/11/11 07:25:21;;;;;;;35.67;24.77;;;10.40;99.90;;;;;;4994157;28;20411;-76
2022/11/11 07:27:46;;;;;;;35.58;23.50;;;10.50;99.90;;;;;;4978247;28;20487;-78
2022/11/11 07:30:12;;;;;;;32.25;23.23;;;10.40;99.90;;;;;;4975022;28;20051;-76
2022/11/11 07:32:49;;;;;;;31.55;22.50;;;10.50;99.90;;;;;;4974612;28;20043;-76
2022/11/11 07:35:16;;;;;;;34.40;23.85;;;10.50;99.90;;;;;;4973504;28;20475;-78
2022/11/11 07:37:43;;;;;;;32.08;23.80;;;10.50;99.90;;;;;;4973646;28;20046;-76
2022/11/11 07:40:10;;;;;;;33.00;23.35;;;10.40;99.90;;;;;;4958828;28;20482;-76
2022/11/11 07:42:41;;;;;;;31.33;22.95;;;10.50;99.90;;;;;;4979267;28;20134;-76
2022/11/11 07:45:08;;;;;;;34.65;24.17;;;10.50;99.90;;;;;;4964880;28;20058;-76
2022/11/11 07:47:34;;;;;;;33.22;22.65;;;10.50;99.90;;;;;;4978771;28;20058;-76
2022/11/11 07:50:01;;;;;;;31.73;23.08;;;10.50;99.90;;;;;;4942852;28;20041;-76
2022/11/11 07:52:27;;;;;;;33.60;22.40;;;10.50;99.90;;;;;;4969633;28;20047;-76
2022/11/11 07:54:52;;;;;;;34.88;22.67;;;10.50;99.90;;;;;;4962943;28;20055;-80
2022/11/11 07:57:18;;;;;;;34.78;22.50;;;10.50;99.90;;;;;;4966294;28;20828;-76
2022/11/11 07:59:44;;;;;;;32.80;23.05;;;10.50;99.90;;;;;;4989875;28;20074;-77
2022/11/11 08:02:10;;;;;;;30.92;23.02;;;10.50;99.90;;;;;;4989427;28;20102;-76
2022/11/11 08:04:36;;;;;;;33.38;22.95;;;10.50;99.90;;;;;;5001216;28;20042;-76
2022/11/11 08:07:02;;;;;;;34.55;22.85;;;10.50;99.90;;;;;;4991025;28;20526;-76
2022/11/11 08:09:27;;;;;;;32.70;22.90;;;10.50;99.90;;;;;;4990434;28;20085;-75
2022/11/11 08:14:38;;;;;;;32.63;22.00;;;10.60;99.90;;;;;;4979550;28;20134;-76
2022/11/11 08:17:03;;;;;;;32.08;22.55;;;10.60;99.90;;;;;;4974816;28;20117;-76
2022/11/11 08:19:29;;;;;;;31.80;22.17;;;10.60;99.90;;;;;;4978190;28;20483;-76
2022/11/11 08:21:55;;;;;;;30.50;22.50;;;10.60;99.90;;;;;;4989866;28;20043;-75
2022/11/11 08:24:20;;;;;;;33.55;21.98;;;10.60;99.90;;;;;;4979777;28;20085;-76
2022/11/11 08:26:47;;;;;;;32.40;22.75;;;10.70;99.90;;;;;;4984281;28;20051;-77
2022/11/11 08:29:13;;;;;;;26.85;21.40;;;10.60;99.90;;;;;;4973686;28;20058;-76
2022/11/11 08:31:38;;;;;;;32.28;22.63;;;10.70;99.90;;;;;;4990022;28;20052;-76
2022/11/11 08:34:04;;;;;;;31.27;22.33;;;10.60;99.90;;;;;;4974238;28;20486;-77
2022/11/11 08:36:30;;;;;;;32.08;22.27;;;10.70;99.90;;;;;;4988303;28;20038;-76
2022/11/11 08:38:56;;;;;;;29.75;21.13;;;10.70;99.90;;;;;;4980264;28;20486;-76
2022/11/11 08:41:22;;;;;;;30.30;21.67;;;10.70;99.90;;;;;;4974076;28;20050;-75
2022/11/11 08:43:54;;;;;;;29.20;20.92;;;10.70;99.90;;;;;;4957747;28;20066;-76
2022/11/11 08:46:21;;;;;;;28.67;20.90;;;10.80;99.90;;;;;;4957274;28;20039;-76
2022/11/11 08:48:47;;;;;;;31.23;22.50;;;10.80;99.90;;;;;;4978943;28;20467;-77
2022/11/11 08:51:14;;;;;;;29.95;21.05;;;10.80;99.90;;;;;;4989000;28;20058;-76
2022/11/11 08:53:40;;;;;;;29.48;21.67;;;10.90;99.90;;;;;;4988462;28;20042;-76
2022/11/11 08:56:07;;;;;;;29.52;21.17;;;10.90;99.90;;;;;;4983825;28;20043;-76
2022/11/11 08:58:33;;;;;;;30.40;20.15;;;10.90;99.90;;;;;;4967879;28;20054;-76
2022/11/11 09:01:00;;;;;;;29.65;21.77;;;10.90;99.90;;;;;;4975863;28;20451;-76
2022/11/11 09:03:26;;;;;;;27.17;20.38;;;11.00;99.90;;;;;;4972294;28;20042;-77
2022/11/11 09:05:52;;;;;;;30.20;20.85;;;11.00;99.90;;;;;;4973177;28;20042;-76
2022/11/11 09:08:18;;;;;;;30.95;21.77;;;11.10;99.90;;;;;;4957183;28;20047;-75
2022/11/11 09:10:43;;;;;;;29.33;19.75;;;11.10;99.90;;;;;;4972926;28;20047;-76
2022/11/11 09:13:09;;;;;;;24.77;19.60;;;11.10;99.90;;;;;;4987854;28;20053;-76
2022/11/11 09:15:35;;;;;;;29.02;19.65;;;11.20;99.90;;;;;;4956824;28;20047;-75
2022/11/11 09:18:02;;;;;;;29.10;19.90;;;11.20;99.90;;;;;;4971213;28;20050;-76
2022/11/11 09:20:28;;;;;;;27.08;19.52;;;11.20;99.90;;;;;;4972132;28;20522;-76
2022/11/11 09:22:53;;;;;;;31.38;20.08;;;11.20;99.90;;;;;;4970798;28;20051;-76
2022/11/11 09:25:20;;;;;;;28.65;20.98;;;11.20;99.90;;;;;;4973666;28;20135;-76
2022/11/11 09:27:59;;;;;;;30.70;21.63;;;11.30;99.90;;;;;;4972042;28;20134;-76
2022/11/11 09:30:27;;;;;;;28.92;20.85;;;11.30;99.90;;;;;;4973246;28;20050;-76
2022/11/11 09:32:52;;;;;;;25.85;20.50;;;11.30;99.90;;;;;;4956360;28;20085;-78
2022/11/11 09:35:19;;;;;;;31.58;21.70;;;11.30;99.90;;;;;;4977592;28;20180;-76
2022/11/11 09:37:59;;;;;;;30.77;21.15;;;11.30;99.90;;;;;;4994505;28;20035;-76
2022/11/11 09:40:37;;;;;;;29.73;22.02;;;11.40;99.90;;;;;;4983119;28;20403;-76
2022/11/11 09:43:26;;;;;;;28.90;22.15;;;11.40;99.90;;;;;;4969578;28;20117;-76
2022/11/11 09:46:04;;;;;;;33.00;22.85;;;11.40;99.90;;;;;;4972783;28;20414;-76
2022/11/11 09:48:38;;;;;;;31.55;22.63;;;11.40;99.90;;;;;;4970726;28;20129;-76
2022/11/11 09:51:08;;;;;;;29.05;21.88;;;11.50;99.90;;;;;;4972292;28;20058;-75
2022/11/11 09:53:43;;;;;;;34.78;23.85;;;11.40;99.90;;;;;;4972237;28;20051;-75
2022/11/11 09:56:14;;;;;;;31.48;23.75;;;11.50;99.90;;;;;;4947498;28;20042;-76
2022/11/11 09:58:45;;;;;;;33.95;23.52;;;11.50;99.90;;;;;;4966430;28;20391;-76
2022/11/11 10:01:24;;;;;;;35.80;24.45;;;11.50;99.90;;;;;;4972601;28;20061;-75
2022/11/11 10:04:01;;;;;;;32.50;23.45;;;11.50;99.90;;;;;;4955456;28;20125;-76
2022/11/11 10:06:34;;;;;;;31.40;22.98;;;11.50;99.90;;;;;;4988863;28;20061;-75
2022/11/11 10:09:16;;;;;;;32.58;24.10;;;11.50;99.90;;;;;;4972418;28;20117;-75
2022/11/11 10:12:02;;;;;;;32.60;23.73;;;11.50;99.90;;;;;;4956288;28;20057;-76
2022/11/11 10:14:51;;;;;;;31.23;23.00;;;11.50;99.90;;;;;;4962841;28;20063;-75
2022/11/11 10:17:20;;;;;;;28.85;22.23;;;11.50;99.90;;;;;;4959207;28;20483;-76
2022/11/11 10:19:57;;;;;;;28.45;21.83;;;11.40;99.90;;;;;;4972156;28;20506;-76
2022/11/11 10:22:37;;;;;;;28.85;22.88;;;11.40;99.90;;;;;;4972286;28;20047;-76
2022/11/11 10:25:26;;;;;;;28.45;21.08;;;11.40;99.90;;;;;;4972843;28;20063;-74
2022/11/11 10:27:55;;;;;;;27.77;20.33;;;11.40;99.90;;;;;;4973922;28;20062;-76
2022/11/11 10:30:28;;;;;;;26.98;20.42;;;11.40;99.90;;;;;;4974003;28;20046;-76
2022/11/11 10:33:15;;;;;;;26.90;19.85;;;11.40;99.90;;;;;;4968555;28;20062;-76
2022/11/11 10:35:41;;;;;;;30.08;20.95;;;11.40;99.90;;;;;;4955881;28;20113;-75
2022/11/11 10:38:10;;;;;;;25.45;20.17;;;11.40;99.90;;;;;;4971862;28;20510;-76
2022/11/11 10:40:46;;;;;;;28.58;20.90;;;11.40;99.90;;;;;;4981148;28;20426;-75
2022/11/11 10:43:24;;;;;;;24.77;19.25;;;11.40;99.90;;;;;;4982220;28;20483;-76
2022/11/11 10:46:14;;;;;;;25.60;19.75;;;11.40;99.90;;;;;;4990902;28;20050;-76
2022/11/11 10:48:51;;;;;;;26.77;19.45;;;11.40;99.90;;;;;;4988459;28;20047;-75
2022/11/11 10:51:18;;;;;;;22.08;18.55;;;11.40;99.90;;;;;;4975524;28;20038;-75
2022/11/11 10:54:03;;;;;;;24.95;19.17;;;11.40;99.90;;;;;;4989764;28;20093;-77
2022/11/11 10:56:42;;;;;;;23.67;18.17;;;11.40;99.90;;;;;;4982405;28;20039;-75
2022/11/11 10:59:14;;;;;;;21.98;17.80;;;11.40;99.90;;;;;;4981047;28;20372;-76
2022/11/11 11:01:48;;;;;;;21.60;17.52;;;11.40;99.90;;;;;;4990468;28;20050;-75
2022/11/11 11:04:46;;;;;;;21.70;17.83;;;11.40;99.90;;;;;;4976322;28;20062;-76
2022/11/11 11:07:18;;;;;;;23.17;18.23;;;11.40;99.90;;;;;;4978196;28;20117;-76
2022/11/11 11:10:07;;;;;;;21.80;18.33;;;11.40;99.90;;;;;;4979278;28;20093;-76
2022/11/11 11:12:50;;;;;;;20.25;16.38;;;11.50;99.90;;;;;;4975139;28;20491;-76
2022/11/11 11:15:27;;;;;;;20.95;16.85;;;11.60;99.90;;;;;;4975419;28;20490;-75
2022/11/11 11:18:03;;;;;;;18.67;15.55;;;11.60;99.90;;;;;;4987328;28;20380;-77
2022/11/11 11:20:29;;;;;;;20.17;16.27;;;11.70;99.90;;;;;;4968910;28;20109;-76
2022/11/11 11:22:58;;;;;;;20.23;16.23;;;11.70;99.90;;;;;;4984147;28;20051;-76
2022/11/11 11:25:25;;;;;;;19.13;14.85;;;11.80;99.90;;;;;;4975162;28;20062;-75
2022/11/11 11:28:03;;;;;;;20.95;15.30;;;11.90;99.90;;;;;;4975311;28;20057;-76
2022/11/11 11:30:28;;;;;;;18.73;16.10;;;12.00;99.90;;;;;;4961058;28;20047;-75
2022/11/11 11:33:00;;;;;;;19.08;15.98;;;12.00;99.90;;;;;;4958510;28;20081;-77
2022/11/11 11:35:37;;;;;;;19.07;14.97;;;12.00;99.90;;;;;;4991181;28;20134;-76
2022/11/11 11:38:05;;;;;;;19.90;15.07;;;11.90;99.90;;;;;;4990953;28;20049;-76
2022/11/11 11:40:55;;;;;;;18.58;14.73;;;11.90;99.90;;;;;;4993191;28;20046;-76
2022/11/11 11:43:44;;;;;;;17.73;14.90;;;12.00;99.90;;;;;;4928394;28;20426;-77
2022/11/11 11:46:39;;;;;;;18.80;15.27;;;12.00;99.90;;;;;;4991644;28;20034;-76
2022/11/11 11:49:28;;;;;;;18.23;14.38;;;12.10;99.90;;;;;;4974364;28;20046;-76
2022/11/11 11:52:11;;;;;;;16.77;13.93;;;12.10;99.90;;;;;;4987751;28;20053;-77
2022/11/11 11:54:42;;;;;;;19.55;15.10;;;12.20;99.90;;;;;;4971279;28;20068;-76
2022/11/11 11:57:25;;;;;;;18.00;14.35;;;12.20;99.90;;;;;;4988601;28;20511;-76
2022/11/11 12:00:01;;;;;;;17.48;13.77;;;12.30;99.90;;;;;;4988045;28;20055;-78
2022/11/11 12:02:39;;;;;;;18.02;13.75;;;12.30;99.90;;;;;;4991607;28;20585;-76
2022/11/11 12:05:18;;;;;;;19.17;14.30;;;12.30;99.90;;;;;;4962811;28;20137;-76
2022/11/11 12:08:21;;;;;;;17.38;14.57;;;12.30;99.90;;;;;;4968638;28;20047;-76
2022/11/11 12:10:56;;;;;;;;;;;12.30;99.90;;;;;;4972741;28;20047;-76
2022/11/11 12:13:47;;;;;;;17.15;13.45;;;12.30;99.90;;;;;;4975106;28;19922;-76
2022/11/11 12:16:20;;;;;;;18.48;13.93;;;12.40;99.90;;;;;;4994575;28;20055;-75
2022/11/11 12:19:19;;;;;;;19.65;14.60;;;12.40;99.90;;;;;;4988254;28;20065;-75
2022/11/11 12:22:04;;;;;;;17.73;13.48;;;12.40;99.90;;;;;;4982302;28;20125;-76
2022/11/11 12:24:58;;;;;;;19.17;13.95;;;12.40;99.90;;;;;;4957176;28;20051;-76
2022/11/11 12:27:43;;;;;;;16.98;13.93;;;12.40;99.90;;;;;;4978192;28;20372;-76
2022/11/11 12:30:18;;;;;;;18.85;13.73;;;12.40;99.90;;;;;;4969764;28;20125;-77
2022/11/11 12:33:04;;;;;;;18.83;14.02;;;12.40;99.90;;;;;;4971797;28;20047;-76
2022/11/11 12:35:36;;;;;;;17.55;14.18;;;12.50;99.90;;;;;;4971602;28;20086;-76
2022/11/11 12:38:29;;;;;;;16.98;13.05;;;12.50;99.90;;;;;;4972115;28;20038;-76
2022/11/11 12:40:54;;;;;;;17.45;13.55;;;12.50;99.90;;;;;;4966226;28;20051;-76
2022/11/11 12:43:35;;;;;;;16.52;13.00;;;12.50;99.90;;;;;;4968369;28;20054;-76
2022/11/11 12:46:19;;;;;;;16.00;13.30;;;12.50;99.90;;;;;;4985970;28;20450;-77
2022/11/11 12:48:50;;;;;;;15.93;13.07;;;12.50;99.90;;;;;;4983190;28;20054;-76
2022/11/11 12:51:31;;;;;;;16.10;13.33;;;12.50;99.90;;;;;;4963456;28;20554;-76
2022/11/11 12:54:18;;;;;;;15.88;12.38;;;12.50;99.90;;;;;;4956913;28;20046;-76
2022/11/11 12:57:22;;;;;;;16.30;12.48;;;12.50;99.90;;;;;;4973639;28;20053;-76
2022/11/11 12:59:54;;;;;;;16.98;12.57;;;12.40;99.90;;;;;;4979335;28;20082;-76
2022/11/11 13:02:31;;;;;;;17.40;12.65;;;12.40;99.90;;;;;;4972576;28;20058;-76
2022/11/11 13:05:35;;;;;;;17.77;13.68;;;12.40;99.90;;;;;;4972441;28;20082;-76
2022/11/11 13:08:38;;;;;;;17.00;12.55;;;12.50;99.90;;;;;;4986277;28;20055;-76
2022/11/11 13:11:45;;;;;;;15.73;12.27;;;12.50;99.90;;;;;;4954920;28;20105;-76
2022/11/11 13:14:14;;;;;;;14.98;11.93;;;12.50;99.90;;;;;;4956205;28;20125;-76
2022/11/11 13:16:39;;;;;;;15.98;11.82;;;12.60;99.90;;;;;;4973219;28;20174;-76
2022/11/11 13:19:20;;;;;;;15.80;12.10;;;12.60;99.90;;;;;;4969347;28;20152;-76
2022/11/11 13:21:56;;;;;;;15.02;10.85;;;12.60;99.90;;;;;;4956572;28;20057;-76
2022/11/11 13:24:23;;;;;;;17.00;11.32;;;12.60;99.90;;;;;;4962783;28;20055;-76
2022/11/11 13:27:06;;;;;;;16.63;11.52;;;12.60;99.90;;;;;;4969233;28;20130;-76
2022/11/11 13:29:50;;;;;;;15.48;11.00;;;12.50;99.90;;;;;;4973329;28;20054;-76
2022/11/11 13:32:23;;;;;;;13.35;10.52;;;12.60;99.90;;;;;;4959036;28;20051;-75
2022/11/11 13:34:50;;;;;;;15.32;11.10;;;12.60;99.90;;;;;;4988608;28;20050;-76
2022/11/11 13:37:31;;;;;;;13.38;10.50;;;12.60;99.90;;;;;;4956682;28;20053;-76
2022/11/11 13:40:09;;;;;;;16.00;11.55;;;12.60;99.90;;;;;;4986824;28;20053;-76
2022/11/11 13:42:48;;;;;;;13.95;10.38;;;12.50;99.90;;;;;;4961108;28;20057;-76
2022/11/11 13:45:49;;;;;;;15.18;10.38;;;12.50;99.90;;;;;;4988654;28;20050;-76
2022/11/11 13:48:38;;;;;;;15.65;11.23;;;12.50;99.90;;;;;;4971927;28;20067;-76
2022/11/11 13:51:18;;;;;;;14.43;10.50;;;12.40;99.90;;;;;;4972900;28;20398;-76
2022/11/11 13:53:46;;;;;;;13.55;10.23;;;12.40;99.90;;;;;;4972042;28;20050;-76
2022/11/11 13:56:28;;;;;;;16.15;11.02;;;12.30;99.90;;;;;;4973273;28;20407;-76
2022/11/11 13:58:55;;;;;;;17.27;11.00;;;12.30;99.90;;;;;;4972548;28;20388;-76
2022/11/11 14:01:21;;;;;;;14.70;10.73;;;12.30;99.90;;;;;;4949270;28;20051;-76
2022/11/11 14:03:50;;;;;;;14.70;11.02;;;12.20;99.90;;;;;;4966324;28;20053;-76